createdAt,value
2022-08-05T00:01:49.024Z,24.01
2022-08-05T00:06:01.506Z,24.02
2022-08-05T00:08:53.549Z,24.01
2022-08-05T00:12:14.941Z,23.50
2022-08-05T00:15:55.301Z,23.33
2022-08-05T00:19:19.265Z,23.63
2022-08-05T00:22:47.015Z,23.86
2022-08-05T00:26:19.915Z,23.53
2022-08-05T00:29:41.353Z,23.18
2022-08-05T00:33:02.388Z,23.36
2022-08-05T00:37:09.673Z,23.38
2022-08-05T00:40:13.453Z,23.11
2022-08-05T00:43:47.310Z,23.17
2022-08-05T00:47:16.754Z,23.14
2022-08-05T00:51:08.782Z,23.10
2022-08-05T00:54:50.870Z,23.05
2022-08-05T00:58:13.429Z,23.28
2022-08-05T01:01:42.481Z,23.20
2022-08-05T01:05:15.328Z,23.03
2022-08-05T01:08:43.026Z,23.05
2022-08-05T01:12:18.444Z,23.09
2022-08-05T01:15:51.433Z,22.91
2022-08-05T01:19:46.275Z,22.84
2022-08-05T01:23:23.709Z,22.84
2022-08-05T01:26:56.936Z,22.62
2022-08-05T01:30:21.448Z,22.79
2022-08-05T01:34:05.794Z,22.70
2022-08-05T01:37:36.563Z,22.60
2022-08-05T01:41:01.333Z,22.63
2022-08-05T01:44:24.744Z,22.21
2022-08-05T01:47:58.408Z,22.48
2022-08-05T01:51:21.315Z,22.43
2022-08-05T01:54:47.403Z,22.18
2022-08-05T01:58:15.846Z,22.34
2022-08-05T02:01:39.813Z,22.69
2022-08-05T02:05:11.697Z,22.55
2022-08-05T02:08:40.876Z,22.65
2022-08-05T02:12:25.255Z,22.46
2022-08-05T02:15:50.431Z,22.46
2022-08-05T02:19:18.701Z,22.25
2022-08-05T02:22:45.787Z,22.31
2022-08-05T02:26:10.221Z,22.43
2022-08-05T02:29:59.038Z,22.48
2022-08-05T02:33:24.576Z,22.27
2022-08-05T02:36:59.693Z,22.27
2022-08-05T02:40:25.167Z,22.45
2022-08-05T02:44:02.307Z,22.33
2022-08-05T02:47:58.475Z,22.50
2022-08-05T02:51:14.584Z,22.36
2022-08-05T02:54:41.005Z,22.85
2022-08-05T02:58:11.547Z,23.27
2022-08-05T03:01:36.123Z,22.64
2022-08-05T03:04:59.496Z,22.56
2022-08-05T03:08:29.556Z,22.46
2022-08-05T03:11:55.639Z,22.06
2022-08-05T03:15:23.449Z,22.12
2022-08-05T03:18:45.410Z,22.15
2022-08-05T03:22:16.676Z,22.32
2022-08-05T03:26:04.403Z,22.97
2022-08-05T03:29:22.364Z,22.96
2022-08-05T03:32:45.366Z,22.53
2022-08-05T03:36:12.055Z,22.31
2022-08-05T03:39:38.161Z,22.54
2022-08-05T03:43:58.454Z,23.13
2022-08-05T03:46:50.661Z,22.04
2022-08-05T03:50:13.927Z,21.71
2022-08-05T03:55:06.918Z,22.40
2022-08-05T03:57:41.605Z,22.24
2022-08-05T04:01:08.199Z,22.15
2022-08-05T04:04:33.978Z,22.57
2022-08-05T04:07:59.011Z,22.76
2022-08-05T04:11:23.232Z,22.48
2022-08-05T04:14:48.300Z,22.92
2022-08-05T04:18:20.231Z,23.11
2022-08-05T04:22:09.546Z,22.93
2022-08-05T04:25:58.047Z,22.88
2022-08-05T04:29:08.531Z,22.69
2022-08-05T04:32:33.383Z,22.23
2022-08-05T04:36:11.218Z,22.38
2022-08-05T04:39:38.198Z,22.42
2022-08-05T04:43:01.805Z,22.33
2022-08-05T04:46:28.390Z,22.30
2022-08-05T04:50:02.906Z,22.06
2022-08-05T04:53:33.520Z,21.95
2022-08-05T04:56:59.668Z,22.23
2022-08-05T05:00:23.886Z,22.06
2022-08-05T05:03:47.418Z,22.32
2022-08-05T05:07:09.780Z,22.26
2022-08-05T05:10:33.363Z,22.51
2022-08-05T05:13:55.381Z,22.27
2022-08-05T05:17:23.522Z,22.56
2022-08-05T05:20:46.511Z,22.72
2022-08-05T05:24:10.822Z,22.76
2022-08-05T05:27:45.819Z,22.56
2022-08-05T05:31:10.191Z,22.43
2022-08-05T05:34:33.146Z,22.48
2022-08-05T05:37:59.529Z,23.14
2022-08-05T05:41:21.780Z,22.69
2022-08-05T05:44:45.976Z,22.66
2022-08-05T05:48:08.671Z,22.60
2022-08-05T05:51:31.470Z,23.30
2022-08-05T05:55:13.232Z,22.60
2022-08-05T05:58:35.150Z,22.74
2022-08-05T06:02:01.781Z,22.63
2022-08-05T06:05:23.454Z,22.86
2022-08-05T06:08:49.161Z,22.82
2022-08-05T06:12:12.042Z,22.79
2022-08-05T06:16:29.921Z,22.73
2022-08-05T06:19:15.273Z,22.88
2022-08-05T06:22:55.738Z,22.56
2022-08-05T06:26:21.531Z,22.70
2022-08-05T06:30:03.979Z,22.49
2022-08-05T06:33:33.337Z,22.21
2022-08-05T06:37:09.706Z,22.12
2022-08-05T06:40:34.148Z,22.07
2022-08-05T06:44:01.532Z,21.93
2022-08-05T06:47:30.326Z,21.76
2022-08-05T06:51:09.296Z,21.52
2022-08-05T06:54:31.345Z,21.32
2022-08-05T06:57:58.221Z,21.47
2022-08-05T07:01:34.761Z,21.37
2022-08-05T07:04:56.198Z,21.50
2022-08-05T07:08:19.249Z,21.43
2022-08-05T07:11:40.745Z,21.67
2022-08-05T07:15:34.386Z,21.94
2022-08-05T07:19:02.647Z,21.62
2022-08-05T07:22:28.614Z,21.71
2022-08-05T07:25:56.134Z,21.56
2022-08-05T07:29:18.128Z,21.59
2022-08-05T07:32:53.313Z,21.90
2022-08-05T07:36:20.697Z,21.97
2022-08-05T07:40:04.204Z,22.43
2022-08-05T07:43:24.831Z,22.30
2022-08-05T07:46:48.286Z,22.43
2022-08-05T07:50:16.470Z,22.63
2022-08-05T07:53:50.826Z,22.83
2022-08-05T07:57:41.466Z,22.48
2022-08-05T08:00:55.150Z,22.59
2022-08-05T08:04:17.366Z,23.05
2022-08-05T08:08:00.006Z,23.26
2022-08-05T08:11:27.792Z,23.08
2022-08-05T08:15:09.638Z,23.21
2022-08-05T08:18:37.505Z,23.60
2022-08-05T08:21:59.244Z,23.54
2022-08-05T08:25:59.431Z,23.07
2022-08-05T08:29:45.226Z,23.46
2022-08-05T08:32:57.871Z,23.54
2022-08-05T08:36:38.733Z,23.49
2022-08-05T08:40:06.822Z,22.95
2022-08-05T08:45:19.289Z,23.55
2022-08-05T08:47:46.834Z,23.70
2022-08-05T08:51:07.675Z,24.16
2022-08-05T08:54:37.761Z,24.16
2022-08-05T08:58:04.441Z,24.16
2022-08-05T09:01:27.248Z,24.53
2022-08-05T09:05:15.974Z,23.95
2022-08-05T09:08:33.627Z,24.34
2022-08-05T09:12:00.202Z,23.85
2022-08-05T09:15:28.186Z,23.78
2022-08-05T09:18:51.939Z,23.55
2022-08-05T09:22:31.854Z,23.62
2022-08-05T09:26:20.435Z,23.16
2022-08-05T09:29:52.996Z,23.69
2022-08-05T09:33:20.422Z,23.52
2022-08-05T09:37:02.158Z,23.49
2022-08-05T09:40:36.418Z,23.45
2022-08-05T09:44:00.633Z,23.15
2022-08-05T09:47:35.221Z,22.89
2022-08-05T09:51:17.588Z,23.58
2022-08-05T09:55:06.274Z,23.30
2022-08-05T09:59:20.985Z,23.04
2022-08-05T10:02:46.519Z,23.03
2022-08-05T10:06:15.973Z,23.23
2022-08-05T10:09:45.404Z,23.06
2022-08-05T10:13:11.642Z,22.74
2022-08-05T10:16:52.569Z,22.72
2022-08-05T10:20:18.303Z,22.82
2022-08-05T10:23:58.995Z,22.47
2022-08-05T10:28:12.768Z,22.43
2022-08-05T10:32:54.910Z,22.53
2022-08-05T10:35:40.670Z,22.51
2022-08-05T10:39:15.271Z,22.65
2022-08-05T10:42:51.828Z,22.71
2022-08-05T10:46:17.473Z,22.30
2022-08-05T10:50:32.564Z,22.57
2022-08-05T10:54:01.550Z,22.43
2022-08-05T10:57:29.347Z,22.73
2022-08-05T11:01:03.210Z,22.23
2022-08-05T11:05:05.787Z,22.75
2022-08-05T11:08:37.244Z,22.83
2022-08-05T11:12:04.869Z,22.65
2022-08-05T11:16:00.276Z,22.61
2022-08-05T11:20:16.641Z,22.39
2022-08-05T11:23:33.280Z,22.90
2022-08-05T11:27:37.086Z,22.86
2022-08-05T11:31:57.004Z,22.54
2022-08-05T11:36:07.809Z,22.45
2022-08-05T11:40:02.803Z,22.68
2022-08-05T11:44:04.761Z,22.68
2022-08-05T11:47:10.412Z,22.70
2022-08-05T11:50:39.319Z,22.43
2022-08-05T11:54:02.199Z,22.12
2022-08-05T11:57:39.284Z,22.18
2022-08-05T12:01:22.975Z,22.37
2022-08-05T12:04:47.101Z,22.12
2022-08-05T12:08:22.614Z,21.70
2022-08-05T12:11:47.469Z,21.81
2022-08-05T12:15:35.928Z,20.69
2022-08-05T12:19:00.298Z,20.38
2022-08-05T12:22:29.066Z,20.52
2022-08-05T12:25:51.580Z,20.28
2022-08-05T12:29:17.902Z,20.60
2022-08-05T12:32:51.692Z,20.91
2022-08-05T12:36:14.676Z,21.23
2022-08-05T12:39:40.374Z,21.05
2022-08-05T12:43:02.070Z,21.10
2022-08-05T12:46:29.088Z,20.92
2022-08-05T12:50:03.969Z,20.85
2022-08-05T12:53:36.721Z,20.55
2022-08-05T12:56:59.963Z,20.91
2022-08-05T13:02:00.325Z,20.14
2022-08-05T13:04:07.582Z,20.48
2022-08-05T13:07:58.032Z,20.26
2022-08-05T13:11:59.843Z,20.66
2022-08-05T13:15:06.208Z,20.38
2022-08-05T13:18:39.122Z,20.94
2022-08-05T13:22:01.700Z,20.65
2022-08-05T13:25:52.664Z,21.30
2022-08-05T13:29:09.793Z,21.29
2022-08-05T13:32:42.179Z,21.51
2022-08-05T13:36:14.343Z,20.54
2022-08-05T13:40:15.839Z,20.78
2022-08-05T13:43:21.756Z,21.00
2022-08-05T13:47:01.789Z,21.15
2022-08-05T13:50:25.484Z,21.02
2022-08-05T13:53:47.713Z,21.53
2022-08-05T13:57:11.738Z,21.51
2022-08-05T14:00:38.308Z,21.10
2022-08-05T14:04:32.466Z,21.62
2022-08-05T14:08:01.897Z,21.57
2022-08-05T14:11:31.285Z,21.24
2022-08-05T14:14:53.476Z,21.62
2022-08-05T14:18:22.969Z,21.91
2022-08-05T14:22:09.689Z,21.71
2022-08-05T14:25:27.957Z,21.63
2022-08-05T14:28:52.056Z,21.59
2022-08-05T14:32:17.094Z,21.49
2022-08-05T14:35:51.608Z,21.47
2022-08-05T14:39:13.379Z,21.21
2022-08-05T14:42:45.019Z,21.42
2022-08-05T14:46:07.030Z,21.49
2022-08-05T14:49:58.876Z,21.59
2022-08-05T14:53:13.597Z,21.71
2022-08-05T14:56:35.431Z,21.57
2022-08-05T14:59:59.187Z,21.49
2022-08-05T15:03:21.106Z,21.69
2022-08-05T15:06:49.053Z,21.56
2022-08-05T15:10:12.577Z,22.13
2022-08-05T15:13:46.299Z,22.04
2022-08-05T15:17:44.405Z,22.36
2022-08-05T15:20:54.429Z,21.81
2022-08-05T15:24:17.203Z,21.79
2022-08-05T15:27:42.896Z,22.05
2022-08-05T15:31:13.635Z,21.26
2022-08-05T15:34:36.660Z,21.54
2022-08-05T15:38:31.840Z,21.81
2022-08-05T15:41:55.232Z,21.31
2022-08-05T15:45:37.810Z,21.15
2022-08-05T15:49:01.254Z,21.43
2022-08-05T15:52:52.599Z,21.57
2022-08-05T15:56:14.523Z,21.71
2022-08-05T15:59:39.757Z,22.06
2022-08-05T16:03:02.555Z,22.24
2022-08-05T16:06:25.824Z,22.17
2022-08-05T16:09:49.791Z,22.73
2022-08-05T16:13:23.565Z,22.50
2022-08-05T16:16:46.801Z,22.50
2022-08-05T16:20:12.306Z,22.13
2022-08-05T16:23:53.887Z,22.12
2022-08-05T16:27:17.778Z,22.10
2022-08-05T16:30:45.946Z,22.19
2022-08-05T16:34:11.732Z,22.60
2022-08-05T16:38:11.943Z,22.53
2022-08-05T16:42:12.500Z,22.48
2022-08-05T16:45:00.213Z,22.49
2022-08-05T16:48:25.831Z,22.82
2022-08-05T16:51:57.045Z,22.78
2022-08-05T16:55:20.457Z,22.81
2022-08-05T16:58:47.639Z,22.39
2022-08-05T17:02:10.049Z,22.45
2022-08-05T17:05:33.805Z,22.79
2022-08-05T17:08:59.267Z,22.89
2022-08-05T17:12:50.334Z,22.61
2022-08-05T17:16:27.593Z,22.65
2022-08-05T17:19:47.360Z,22.64
2022-08-05T17:24:03.836Z,22.50
2022-08-05T17:27:07.502Z,22.57
2022-08-05T17:30:31.382Z,22.24
2022-08-05T17:33:53.962Z,22.40
2022-08-05T17:37:39.342Z,22.37
2022-08-05T17:41:01.576Z,22.58
2022-08-05T17:44:50.135Z,22.12
2022-08-05T17:48:14.226Z,22.61
2022-08-05T17:51:40.397Z,22.49
2022-08-05T17:55:02.960Z,22.63
2022-08-05T17:58:32.423Z,22.83
2022-08-05T18:01:54.025Z,23.22
2022-08-05T18:05:17.613Z,23.06
2022-08-05T18:08:44.919Z,22.60
2022-08-05T18:12:08.031Z,22.72
2022-08-05T18:15:35.166Z,22.46
2022-08-05T18:19:04.261Z,22.31
2022-08-05T18:22:36.381Z,22.05
2022-08-05T18:26:11.587Z,22.23
2022-08-05T18:29:40.881Z,21.80
2022-08-05T18:33:13.849Z,21.81
2022-08-05T18:36:48.214Z,22.05
2022-08-05T18:41:52.700Z,22.56
2022-08-05T18:44:08.132Z,22.21
2022-08-05T18:47:31.698Z,22.22
2022-08-05T18:52:04.052Z,21.82
2022-08-05T18:54:55.923Z,22.05
2022-08-05T18:58:27.002Z,22.10
2022-08-05T19:01:58.425Z,22.07
2022-08-05T19:06:12.871Z,21.96
2022-08-05T19:09:05.619Z,21.42
2022-08-05T19:12:29.801Z,21.20
2022-08-05T19:15:57.696Z,21.38
2022-08-05T19:19:26.269Z,21.03
2022-08-05T19:22:48.714Z,20.92
2022-08-05T19:26:14.145Z,20.84
2022-08-05T19:29:36.712Z,20.58
2022-08-05T19:33:05.165Z,20.68
2022-08-05T19:36:30.782Z,20.73
2022-08-05T19:39:54.299Z,20.64
2022-08-05T19:44:04.177Z,20.38
2022-08-05T19:47:02.630Z,20.42
2022-08-05T19:50:26.375Z,20.38
2022-08-05T19:54:04.429Z,20.21
2022-08-05T19:57:49.187Z,20.20
2022-08-05T20:01:10.902Z,20.09
2022-08-05T20:04:33.858Z,19.95
2022-08-05T20:07:58.139Z,19.86
2022-08-05T20:11:21.408Z,19.87
2022-08-05T20:15:03.173Z,19.98
2022-08-05T20:18:33.806Z,20.01
2022-08-05T20:21:58.244Z,19.83
2022-08-05T20:25:23.375Z,19.50
2022-08-05T20:28:45.975Z,19.58
2022-08-05T20:32:10.326Z,19.87
2022-08-05T20:35:40.510Z,19.60
2022-08-05T20:39:06.977Z,19.46
2022-08-05T20:42:41.468Z,19.39
2022-08-05T20:46:25.552Z,19.46
2022-08-05T20:49:47.461Z,19.45
2022-08-05T20:53:16.312Z,19.30
2022-08-05T20:57:00.497Z,19.16
2022-08-05T21:00:44.289Z,19.09
2022-08-05T21:04:10.545Z,19.14
2022-08-05T21:07:50.998Z,18.93
2022-08-05T21:12:09.513Z,18.79
2022-08-05T21:15:08.129Z,18.96
2022-08-05T21:18:36.118Z,18.99
2022-08-05T21:22:00.094Z,18.81
2022-08-05T21:25:22.750Z,18.83
2022-08-05T21:29:04.868Z,18.82
2022-08-05T21:32:28.562Z,18.75
2022-08-05T21:35:58.872Z,18.54
2022-08-05T21:39:40.310Z,18.58
2022-08-05T21:43:02.545Z,18.61
2022-08-05T21:46:28.103Z,18.61
2022-08-05T21:49:59.397Z,18.60
2022-08-05T21:53:33.975Z,18.56
2022-08-05T21:57:30.749Z,18.50
2022-08-05T22:00:51.295Z,18.03
2022-08-05T22:04:13.775Z,18.23
2022-08-05T22:07:39.306Z,18.14
2022-08-05T22:11:18.107Z,18.19
2022-08-05T22:14:57.853Z,18.25
2022-08-05T22:18:19.745Z,18.39
2022-08-05T22:21:47.557Z,18.10
2022-08-05T22:26:10.195Z,18.03
2022-08-05T22:29:26.685Z,17.64
2022-08-05T22:32:52.897Z,17.92
2022-08-05T22:36:18.727Z,17.76
2022-08-05T22:39:45.588Z,17.64
2022-08-05T22:43:13.605Z,17.73
2022-08-05T22:46:40.224Z,17.78
2022-08-05T22:50:20.259Z,17.76
2022-08-05T22:53:49.906Z,17.63
2022-08-05T22:57:12.379Z,17.60
2022-08-05T23:00:38.599Z,17.69
2022-08-05T23:04:03.925Z,18.03
2022-08-05T23:07:28.530Z,17.35
2022-08-05T23:10:54.981Z,17.40
2022-08-05T23:14:17.350Z,17.59
2022-08-05T23:18:02.463Z,17.62
2022-08-05T23:21:27.121Z,17.60
2022-08-05T23:25:05.967Z,17.49
2022-08-05T23:28:33.503Z,17.40
2022-08-05T23:31:56.063Z,17.38
2022-08-05T23:35:18.832Z,17.62
2022-08-05T23:38:43.523Z,17.16
2022-08-05T23:42:05.466Z,17.17
2022-08-05T23:45:33.077Z,17.00
2022-08-05T23:49:00.533Z,16.90
2022-08-05T23:52:30.720Z,17.29
2022-08-05T23:55:54.572Z,17.09
2022-08-05T23:59:15.814Z,17.07
